sensor_id;sensor_type;location;lat;lon;timestamp;P1;durP1;ratioP1;P2;durP2;ratioP2
55678;SDS011;41573;51.446;-2.018;2023-05-16T00:00:41;0.70;;;0.60;;
55678;SDS011;41573;51.446;-2.018;2023-05-16T00:03:12;3.60;;;0.70;;
55678;SDS011;41573;51.446;-2.018;2023-05-16T00:05:37;0.40;;;0.40;;
55678;SDS011;41573;51.446;-2.018;2023-05-16T00:08:03;0.75;;;0.40;;
55678;SDS011;41573;51.446;-2.018;2023-05-16T00:10:33;1.33;;;0.60;;
55678;SDS011;41573;51.446;-2.018;2023-05-16T00:13:07;0.82;;;0.60;;
55678;SDS011;41573;51.446;-2.018;2023-05-16T00:15:38;0.50;;;0.50;;
55678;SDS011;41573;51.446;-2.018;2023-05-16T00:18:08;1.05;;;0.65;;
55678;SDS011;41573;51.446;-2.018;2023-05-16T00:20:38;0.75;;;0.60;;
55678;SDS011;41573;51.446;-2.018;2023-05-16T00:23:24;2.92;;;1.00;;
55678;SDS011;41573;51.446;-2.018;2023-05-16T00:25:57;0.70;;;0.70;;
55678;SDS011;41573;51.446;-2.018;2023-05-16T00:28:35;2.42;;;1.08;;
55678;SDS011;41573;51.446;-2.018;2023-05-16T00:31:07;3.80;;;1.02;;
55678;SDS011;41573;51.446;-2.018;2023-05-16T00:33:33;0.65;;;0.47;;
55678;SDS011;41573;51.446;-2.018;2023-05-16T00:36:16;0.40;;;0.40;;
55678;SDS011;41573;51.446;-2.018;2023-05-16T00:39:09;3.10;;;1.08;;
55678;SDS011;41573;51.446;-2.018;2023-05-16T00:41:45;0.70;;;0.60;;
55678;SDS011;41573;51.446;-2.018;2023-05-16T00:44:17;0.88;;;0.80;;
55678;SDS011;41573;51.446;-2.018;2023-05-16T00:46:45;0.52;;;0.40;;
55678;SDS011;41573;51.446;-2.018;2023-05-16T00:52:49;1.77;;;0.70;;
55678;SDS011;41573;51.446;-2.018;2023-05-16T01:06:20;0.40;;;0.40;;
55678;SDS011;41573;51.446;-2.018;2023-05-16T01:08:53;3.40;;;0.80;;
55678;SDS011;41573;51.446;-2.018;2023-05-16T06:55:31;0.50;;;0.50;;
55678;SDS011;41573;51.446;-2.018;2023-05-16T06:58:00;0.30;;;0.30;;
55678;SDS011;41573;51.446;-2.018;2023-05-16T07:00:25;0.95;;;0.57;;
55678;SDS011;41573;51.446;-2.018;2023-05-16T07:02:51;1.52;;;0.65;;
55678;SDS011;41573;51.446;-2.018;2023-05-16T07:05:16;0.50;;;0.45;;
55678;SDS011;41573;51.446;-2.018;2023-05-16T07:07:42;0.65;;;0.40;;
55678;SDS011;41573;51.446;-2.018;2023-05-16T07:10:07;0.35;;;0.30;;
55678;SDS011;41573;51.446;-2.018;2023-05-16T07:12:35;2.03;;;0.60;;
55678;SDS011;41573;51.446;-2.018;2023-05-16T07:15:04;0.57;;;0.47;;
55678;SDS011;41573;51.446;-2.018;2023-05-16T07:17:36;0.50;;;0.50;;
55678;SDS011;41573;51.446;-2.018;2023-05-16T07:20:01;1.45;;;0.90;;
55678;SDS011;41573;51.446;-2.018;2023-05-16T07:22:45;0.32;;;0.32;;
55678;SDS011;41573;51.446;-2.018;2023-05-16T07:25:11;2.00;;;0.70;;
55678;SDS011;41573;51.446;-2.018;2023-05-16T07:27:39;0.60;;;0.60;;
55678;SDS011;41573;51.446;-2.018;2023-05-16T07:30:09;0.65;;;0.57;;
55678;SDS011;41573;51.446;-2.018;2023-05-16T07:32:35;0.45;;;0.45;;
55678;SDS011;41573;51.446;-2.018;2023-05-16T07:35:04;0.82;;;0.50;;
55678;SDS011;41573;51.446;-2.018;2023-05-16T07:37:30;0.90;;;0.60;;
55678;SDS011;41573;51.446;-2.018;2023-05-16T07:39:56;3.60;;;0.57;;
55678;SDS011;41573;51.446;-2.018;2023-05-16T07:42:22;0.45;;;0.45;;
55678;SDS011;41573;51.446;-2.018;2023-05-16T07:44:47;0.38;;;0.32;;
55678;SDS011;41573;51.446;-2.018;2023-05-16T07:47:12;2.97;;;0.85;;
55678;SDS011;41573;51.446;-2.018;2023-05-16T07:49:38;0.85;;;0.47;;
55678;SDS011;41573;51.446;-2.018;2023-05-16T07:52:04;0.50;;;0.50;;
55678;SDS011;41573;51.446;-2.018;2023-05-16T07:54:29;1.38;;;0.50;;
55678;SDS011;41573;51.446;-2.018;2023-05-16T07:56:56;0.98;;;0.80;;
55678;SDS011;41573;51.446;-2.018;2023-05-16T07:59:21;1.95;;;0.43;;
55678;SDS011;41573;51.446;-2.018;2023-05-16T08:01:46;0.80;;;0.57;;
55678;SDS011;41573;51.446;-2.018;2023-05-16T08:04:12;1.58;;;0.60;;
55678;SDS011;41573;51.446;-2.018;2023-05-16T08:06:38;1.00;;;0.90;;
55678;SDS011;41573;51.446;-2.018;2023-05-16T08:09:03;2.58;;;0.52;;
55678;SDS011;41573;51.446;-2.018;2023-05-16T08:11:29;1.15;;;0.73;;
55678;SDS011;41573;51.446;-2.018;2023-05-16T08:13:54;3.78;;;0.50;;
55678;SDS011;41573;51.446;-2.018;2023-05-16T08:16:19;4.93;;;1.13;;
55678;SDS011;41573;51.446;-2.018;2023-05-16T08:18:45;2.13;;;0.50;;
55678;SDS011;41573;51.446;-2.018;2023-05-16T08:21:11;0.43;;;0.43;;
55678;SDS011;41573;51.446;-2.018;2023-05-16T08:23:38;2.83;;;0.55;;
55678;SDS011;41573;51.446;-2.018;2023-05-16T08:26:03;1.10;;;0.63;;
55678;SDS011;41573;51.446;-2.018;2023-05-16T08:28:29;1.08;;;0.73;;
55678;SDS011;41573;51.446;-2.018;2023-05-16T08:30:55;2.00;;;0.57;;
55678;SDS011;41573;51.446;-2.018;2023-05-16T08:33:20;2.75;;;0.80;;
55678;SDS011;41573;51.446;-2.018;2023-05-16T08:35:45;0.75;;;0.63;;
55678;SDS011;41573;51.446;-2.018;2023-05-16T08:38:12;3.67;;;0.60;;
55678;SDS011;41573;51.446;-2.018;2023-05-16T08:40:38;2.30;;;0.63;;
55678;SDS011;41573;51.446;-2.018;2023-05-16T08:43:04;2.85;;;0.75;;
55678;SDS011;41573;51.446;-2.018;2023-05-16T08:45:30;2.33;;;0.82;;
55678;SDS011;41573;51.446;-2.018;2023-05-16T08:47:56;3.55;;;1.05;;
55678;SDS011;41573;51.446;-2.018;2023-05-16T08:50:24;1.30;;;0.80;;
55678;SDS011;41573;51.446;-2.018;2023-05-16T08:52:54;3.50;;;1.00;;
55678;SDS011;41573;51.446;-2.018;2023-05-16T08:55:19;1.50;;;0.90;;
55678;SDS011;41573;51.446;-2.018;2023-05-16T08:57:47;0.70;;;0.60;;
55678;SDS011;41573;51.446;-2.018;2023-05-16T09:00:13;2.40;;;1.02;;
55678;SDS011;41573;51.446;-2.018;2023-05-16T09:02:40;1.13;;;0.93;;
55678;SDS011;41573;51.446;-2.018;2023-05-16T09:05:15;1.42;;;0.68;;
55678;SDS011;41573;51.446;-2.018;2023-05-16T09:07:41;1.60;;;0.90;;
55678;SDS011;41573;51.446;-2.018;2023-05-16T09:10:08;2.38;;;0.82;;
55678;SDS011;41573;51.446;-2.018;2023-05-16T09:12:34;1.05;;;0.73;;
55678;SDS011;41573;51.446;-2.018;2023-05-16T09:15:04;3.28;;;1.38;;
55678;SDS011;41573;51.446;-2.018;2023-05-16T09:17:44;1.35;;;0.88;;
55678;SDS011;41573;51.446;-2.018;2023-05-16T09:20:16;2.83;;;1.13;;
55678;SDS011;41573;51.446;-2.018;2023-05-16T09:22:51;1.98;;;0.93;;
55678;SDS011;41573;51.446;-2.018;2023-05-16T09:25:18;1.70;;;0.80;;
55678;SDS011;41573;51.446;-2.018;2023-05-16T09:27:48;3.72;;;1.30;;
55678;SDS011;41573;51.446;-2.018;2023-05-16T09:30:20;2.45;;;1.40;;
55678;SDS011;41573;51.446;-2.018;2023-05-16T09:32:49;1.50;;;0.75;;
55678;SDS011;41573;51.446;-2.018;2023-05-16T09:35:18;1.33;;;0.80;;
55678;SDS011;41573;51.446;-2.018;2023-05-16T09:37:47;0.65;;;0.63;;
55678;SDS011;41573;51.446;-2.018;2023-05-16T09:40:14;0.88;;;0.65;;
55678;SDS011;41573;51.446;-2.018;2023-05-16T09:42:40;2.10;;;0.90;;
55678;SDS011;41573;51.446;-2.018;2023-05-16T09:45:10;1.17;;;0.60;;
55678;SDS011;41573;51.446;-2.018;2023-05-16T09:47:38;0.70;;;0.65;;
55678;SDS011;41573;51.446;-2.018;2023-05-16T09:50:10;0.75;;;0.75;;
55678;SDS011;41573;51.446;-2.018;2023-05-16T09:52:36;0.80;;;0.80;;
55678;SDS011;41573;51.446;-2.018;2023-05-16T09:55:05;3.17;;;0.73;;
55678;SDS011;41573;51.446;-2.018;2023-05-16T09:57:31;1.75;;;0.65;;
55678;SDS011;41573;51.446;-2.018;2023-05-16T09:59:58;1.58;;;0.60;;
55678;SDS011;41573;51.446;-2.018;2023-05-16T10:02:25;3.20;;;1.20;;
55678;SDS011;41573;51.446;-2.018;2023-05-16T10:04:51;1.95;;;1.05;;
55678;SDS011;41573;51.446;-2.018;2023-05-16T10:07:16;4.03;;;1.00;;
55678;SDS011;41573;51.446;-2.018;2023-05-16T10:09:43;2.38;;;0.90;;
55678;SDS011;41573;51.446;-2.018;2023-05-16T10:12:10;2.20;;;0.68;;
55678;SDS011;41573;51.446;-2.018;2023-05-16T10:14:37;2.42;;;0.90;;
55678;SDS011;41573;51.446;-2.018;2023-05-16T10:17:09;3.70;;;1.25;;
55678;SDS011;41573;51.446;-2.018;2023-05-16T10:19:37;1.77;;;1.05;;
55678;SDS011;41573;51.446;-2.018;2023-05-16T10:22:04;1.88;;;0.90;;
55678;SDS011;41573;51.446;-2.018;2023-05-16T10:27:12;2.25;;;1.23;;
55678;SDS011;41573;51.446;-2.018;2023-05-16T10:29:39;1.80;;;0.80;;
55678;SDS011;41573;51.446;-2.018;2023-05-16T10:32:05;2.35;;;0.90;;
55678;SDS011;41573;51.446;-2.018;2023-05-16T10:34:32;1.25;;;1.05;;
55678;SDS011;41573;51.446;-2.018;2023-05-16T10:36:58;1.40;;;1.00;;
55678;SDS011;41573;51.446;-2.018;2023-05-16T10:39:24;1.00;;;0.90;;
55678;SDS011;41573;51.446;-2.018;2023-05-16T10:41:51;0.93;;;0.73;;
55678;SDS011;41573;51.446;-2.018;2023-05-16T10:44:17;1.50;;;0.80;;
55678;SDS011;41573;51.446;-2.018;2023-05-16T10:46:43;2.00;;;0.88;;
55678;SDS011;41573;51.446;-2.018;2023-05-16T10:49:23;2.45;;;1.08;;
55678;SDS011;41573;51.446;-2.018;2023-05-16T10:52:03;1.75;;;0.95;;
55678;SDS011;41573;51.446;-2.018;2023-05-16T10:54:32;1.83;;;1.00;;
55678;SDS011;41573;51.446;-2.018;2023-05-16T10:57:24;1.33;;;0.80;;
55678;SDS011;41573;51.446;-2.018;2023-05-16T10:59:49;1.08;;;0.70;;
55678;SDS011;41573;51.446;-2.018;2023-05-16T11:02:22;1.40;;;0.82;;
55678;SDS011;41573;51.446;-2.018;2023-05-16T11:04:51;1.10;;;1.00;;
55678;SDS011;41573;51.446;-2.018;2023-05-16T11:07:17;1.98;;;1.23;;
55678;SDS011;41573;51.446;-2.018;2023-05-16T11:09:44;0.65;;;0.60;;
55678;SDS011;41573;51.446;-2.018;2023-05-16T11:12:10;3.05;;;1.13;;
55678;SDS011;41573;51.446;-2.018;2023-05-16T11:14:37;2.50;;;0.73;;
55678;SDS011;41573;51.446;-2.018;2023-05-16T11:22:12;2.35;;;1.08;;
55678;SDS011;41573;51.446;-2.018;2023-05-16T11:27:19;3.33;;;1.73;;
55678;SDS011;41573;51.446;-2.018;2023-05-16T11:29:46;2.63;;;1.08;;
55678;SDS011;41573;51.446;-2.018;2023-05-16T11:32:12;3.35;;;0.93;;
55678;SDS011;41573;51.446;-2.018;2023-05-16T11:34:38;1.33;;;1.00;;
55678;SDS011;41573;51.446;-2.018;2023-05-16T11:37:04;2.65;;;1.05;;
55678;SDS011;41573;51.446;-2.018;2023-05-16T11:39:31;3.28;;;1.00;;
55678;SDS011;41573;51.446;-2.018;2023-05-16T11:41:56;3.63;;;1.10;;
55678;SDS011;41573;51.446;-2.018;2023-05-16T11:44:22;1.92;;;1.02;;
55678;SDS011;41573;51.446;-2.018;2023-05-16T11:46:47;1.40;;;0.73;;
55678;SDS011;41573;51.446;-2.018;2023-05-16T11:49:13;2.45;;;1.13;;
55678;SDS011;41573;51.446;-2.018;2023-05-16T11:51:42;2.55;;;1.60;;
55678;SDS011;41573;51.446;-2.018;2023-05-16T11:54:10;6.83;;;1.23;;
55678;SDS011;41573;51.446;-2.018;2023-05-16T11:56:39;2.88;;;1.30;;
55678;SDS011;41573;51.446;-2.018;2023-05-16T11:59:05;4.60;;;1.27;;
55678;SDS011;41573;51.446;-2.018;2023-05-16T12:01:34;1.75;;;0.90;;
55678;SDS011;41573;51.446;-2.018;2023-05-16T12:04:01;4.63;;;1.70;;
55678;SDS011;41573;51.446;-2.018;2023-05-16T12:06:31;2.70;;;1.15;;
55678;SDS011;41573;51.446;-2.018;2023-05-16T12:08:57;2.50;;;1.40;;
55678;SDS011;41573;51.446;-2.018;2023-05-16T12:11:22;1.88;;;1.10;;
55678;SDS011;41573;51.446;-2.018;2023-05-16T12:13:48;2.42;;;1.40;;
55678;SDS011;41573;51.446;-2.018;2023-05-16T12:16:14;1.85;;;0.82;;
55678;SDS011;41573;51.446;-2.018;2023-05-16T12:18:40;3.95;;;1.70;;
55678;SDS011;41573;51.446;-2.018;2023-05-16T12:21:06;1.88;;;1.08;;
55678;SDS011;41573;51.446;-2.018;2023-05-16T12:23:32;2.67;;;1.35;;
55678;SDS011;41573;51.446;-2.018;2023-05-16T12:25:58;1.33;;;1.10;;
55678;SDS011;41573;51.446;-2.018;2023-05-16T12:28:31;1.75;;;1.20;;
55678;SDS011;41573;51.446;-2.018;2023-05-16T12:30:58;2.70;;;1.25;;
55678;SDS011;41573;51.446;-2.018;2023-05-16T12:33:24;2.13;;;1.02;;
55678;SDS011;41573;51.446;-2.018;2023-05-16T12:35:49;2.45;;;1.60;;
55678;SDS011;41573;51.446;-2.018;2023-05-16T12:38:17;2.53;;;1.52;;
55678;SDS011;41573;51.446;-2.018;2023-05-16T12:40:44;1.73;;;1.10;;
55678;SDS011;41573;51.446;-2.018;2023-05-16T12:43:20;2.75;;;1.63;;
55678;SDS011;41573;51.446;-2.018;2023-05-16T12:45:50;1.98;;;1.33;;
55678;SDS011;41573;51.446;-2.018;2023-05-16T12:48:17;2.53;;;1.60;;
55678;SDS011;41573;51.446;-2.018;2023-05-16T12:50:43;3.22;;;1.20;;
55678;SDS011;41573;51.446;-2.018;2023-05-16T12:53:12;3.25;;;1.40;;
55678;SDS011;41573;51.446;-2.018;2023-05-16T12:55:39;2.10;;;1.52;;
55678;SDS011;41573;51.446;-2.018;2023-05-16T12:58:05;2.30;;;1.10;;
55678;SDS011;41573;51.446;-2.018;2023-05-16T13:00:31;3.72;;;1.20;;
55678;SDS011;41573;51.446;-2.018;2023-05-16T13:02:57;1.75;;;1.13;;
55678;SDS011;41573;51.446;-2.018;2023-05-16T13:05:22;1.55;;;1.05;;
55678;SDS011;41573;51.446;-2.018;2023-05-16T13:07:48;2.80;;;1.60;;
55678;SDS011;41573;51.446;-2.018;2023-05-16T13:10:15;3.92;;;1.40;;
55678;SDS011;41573;51.446;-2.018;2023-05-16T13:12:41;5.68;;;1.80;;
55678;SDS011;41573;51.446;-2.018;2023-05-16T13:15:07;3.92;;;1.17;;
55678;SDS011;41573;51.446;-2.018;2023-05-16T13:17:35;2.70;;;1.38;;
55678;SDS011;41573;51.446;-2.018;2023-05-16T13:20:05;2.05;;;1.17;;
55678;SDS011;41573;51.446;-2.018;2023-05-16T13:22:33;3.00;;;1.27;;
55678;SDS011;41573;51.446;-2.018;2023-05-16T13:25:02;2.50;;;1.45;;
55678;SDS011;41573;51.446;-2.018;2023-05-16T13:27:28;2.85;;;1.30;;
55678;SDS011;41573;51.446;-2.018;2023-05-16T13:29:54;2.22;;;1.40;;
55678;SDS011;41573;51.446;-2.018;2023-05-16T13:32:19;3.17;;;1.65;;
55678;SDS011;41573;51.446;-2.018;2023-05-16T13:34:45;2.42;;;1.30;;
55678;SDS011;41573;51.446;-2.018;2023-05-16T13:37:10;3.65;;;1.38;;
55678;SDS011;41573;51.446;-2.018;2023-05-16T13:39:35;2.38;;;1.17;;
55678;SDS011;41573;51.446;-2.018;2023-05-16T13:42:01;3.35;;;1.45;;
55678;SDS011;41573;51.446;-2.018;2023-05-16T13:44:27;4.63;;;1.40;;
55678;SDS011;41573;51.446;-2.018;2023-05-16T13:46:53;1.70;;;1.00;;
55678;SDS011;41573;51.446;-2.018;2023-05-16T13:49:19;2.88;;;1.30;;
55678;SDS011;41573;51.446;-2.018;2023-05-16T13:51:44;3.30;;;1.85;;
55678;SDS011;41573;51.446;-2.018;2023-05-16T13:54:11;2.97;;;1.45;;
55678;SDS011;41573;51.446;-2.018;2023-05-16T13:56:36;2.58;;;1.30;;
55678;SDS011;41573;51.446;-2.018;2023-05-16T13:59:02;2.20;;;1.42;;
55678;SDS011;41573;51.446;-2.018;2023-05-16T14:01:27;1.88;;;1.25;;
55678;SDS011;41573;51.446;-2.018;2023-05-16T14:03:53;2.47;;;1.42;;
55678;SDS011;41573;51.446;-2.018;2023-05-16T14:06:18;1.80;;;1.33;;
55678;SDS011;41573;51.446;-2.018;2023-05-16T14:08:43;3.55;;;1.52;;
55678;SDS011;41573;51.446;-2.018;2023-05-16T14:11:09;2.85;;;1.60;;
55678;SDS011;41573;51.446;-2.018;2023-05-16T14:13:35;3.00;;;1.60;;
55678;SDS011;41573;51.446;-2.018;2023-05-16T14:16:00;2.45;;;1.20;;
55678;SDS011;41573;51.446;-2.018;2023-05-16T14:18:26;3.50;;;1.40;;
55678;SDS011;41573;51.446;-2.018;2023-05-16T14:20:51;3.20;;;1.52;;
55678;SDS011;41573;51.446;-2.018;2023-05-16T14:23:20;4.07;;;1.27;;
55678;SDS011;41573;51.446;-2.018;2023-05-16T14:25:45;2.90;;;1.52;;
55678;SDS011;41573;51.446;-2.018;2023-05-16T14:28:10;2.30;;;1.40;;
55678;SDS011;41573;51.446;-2.018;2023-05-16T14:30:36;4.53;;;1.33;;
55678;SDS011;41573;51.446;-2.018;2023-05-16T14:33:01;3.53;;;1.30;;
55678;SDS011;41573;51.446;-2.018;2023-05-16T14:35:27;3.25;;;1.65;;
55678;SDS011;41573;51.446;-2.018;2023-05-16T14:37:53;4.80;;;1.75;;
55678;SDS011;41573;51.446;-2.018;2023-05-16T14:40:18;3.72;;;1.65;;
55678;SDS011;41573;51.446;-2.018;2023-05-16T14:42:45;4.25;;;1.52;;
55678;SDS011;41573;51.446;-2.018;2023-05-16T14:45:11;3.35;;;1.83;;
55678;SDS011;41573;51.446;-2.018;2023-05-16T14:47:36;2.47;;;1.30;;
55678;SDS011;41573;51.446;-2.018;2023-05-16T14:50:02;2.88;;;1.50;;
55678;SDS011;41573;51.446;-2.018;2023-05-16T14:52:27;2.35;;;1.55;;
55678;SDS011;41573;51.446;-2.018;2023-05-16T14:54:53;2.65;;;1.55;;
55678;SDS011;41573;51.446;-2.018;2023-05-16T14:57:18;6.50;;;1.70;;
55678;SDS011;41573;51.446;-2.018;2023-05-16T14:59:43;4.70;;;1.80;;
55678;SDS011;41573;51.446;-2.018;2023-05-16T15:02:09;3.10;;;1.35;;
55678;SDS011;41573;51.446;-2.018;2023-05-16T15:04:34;2.13;;;1.40;;
55678;SDS011;41573;51.446;-2.018;2023-05-16T15:06:59;3.75;;;2.13;;
55678;SDS011;41573;51.446;-2.018;2023-05-16T15:09:25;4.45;;;1.77;;
55678;SDS011;41573;51.446;-2.018;2023-05-16T15:11:50;5.13;;;1.67;;
55678;SDS011;41573;51.446;-2.018;2023-05-16T15:14:15;3.60;;;1.75;;
55678;SDS011;41573;51.446;-2.018;2023-05-16T15:16:41;3.50;;;1.60;;
55678;SDS011;41573;51.446;-2.018;2023-05-16T15:19:06;2.83;;;1.70;;
55678;SDS011;41573;51.446;-2.018;2023-05-16T15:21:32;3.97;;;1.67;;
55678;SDS011;41573;51.446;-2.018;2023-05-16T15:23:58;3.47;;;1.55;;
55678;SDS011;41573;51.446;-2.018;2023-05-16T15:26:23;2.92;;;1.67;;
55678;SDS011;41573;51.446;-2.018;2023-05-16T15:28:49;3.95;;;1.73;;
55678;SDS011;41573;51.446;-2.018;2023-05-16T15:31:14;2.78;;;1.65;;
55678;SDS011;41573;51.446;-2.018;2023-05-16T15:33:40;3.90;;;2.58;;
55678;SDS011;41573;51.446;-2.018;2023-05-16T15:36:05;4.68;;;1.70;;
55678;SDS011;41573;51.446;-2.018;2023-05-16T15:38:31;2.20;;;1.38;;
55678;SDS011;41573;51.446;-2.018;2023-05-16T15:40:56;3.63;;;1.58;;
55678;SDS011;41573;51.446;-2.018;2023-05-16T15:43:22;6.63;;;1.70;;
55678;SDS011;41573;51.446;-2.018;2023-05-16T15:45:47;3.33;;;1.60;;
55678;SDS011;41573;51.446;-2.018;2023-05-16T15:48:13;4.03;;;2.00;;
55678;SDS011;41573;51.446;-2.018;2023-05-16T15:50:38;2.70;;;1.80;;
55678;SDS011;41573;51.446;-2.018;2023-05-16T15:53:04;2.83;;;1.40;;
55678;SDS011;41573;51.446;-2.018;2023-05-16T15:55:30;2.92;;;1.70;;
55678;SDS011;41573;51.446;-2.018;2023-05-16T15:57:56;3.45;;;1.90;;
55678;SDS011;41573;51.446;-2.018;2023-05-16T16:00:22;3.47;;;1.98;;
55678;SDS011;41573;51.446;-2.018;2023-05-16T16:02:48;2.40;;;1.70;;
55678;SDS011;41573;51.446;-2.018;2023-05-16T16:05:14;3.63;;;1.60;;
55678;SDS011;41573;51.446;-2.018;2023-05-16T16:07:39;3.78;;;1.90;;
55678;SDS011;41573;51.446;-2.018;2023-05-16T16:10:05;6.72;;;1.67;;
55678;SDS011;41573;51.446;-2.018;2023-05-16T16:12:31;3.90;;;1.70;;
55678;SDS011;41573;51.446;-2.018;2023-05-16T16:14:56;3.42;;;1.50;;
55678;SDS011;41573;51.446;-2.018;2023-05-16T16:17:22;3.55;;;1.70;;
55678;SDS011;41573;51.446;-2.018;2023-05-16T16:19:47;3.42;;;1.90;;
55678;SDS011;41573;51.446;-2.018;2023-05-16T16:22:12;3.78;;;2.15;;
55678;SDS011;41573;51.446;-2.018;2023-05-16T16:24:38;5.22;;;1.85;;
55678;SDS011;41573;51.446;-2.018;2023-05-16T16:27:03;4.40;;;1.80;;
55678;SDS011;41573;51.446;-2.018;2023-05-16T16:29:29;5.50;;;2.42;;
55678;SDS011;41573;51.446;-2.018;2023-05-16T16:31:54;3.60;;;1.75;;
55678;SDS011;41573;51.446;-2.018;2023-05-16T16:34:20;4.20;;;2.03;;
55678;SDS011;41573;51.446;-2.018;2023-05-16T16:36:45;3.63;;;1.65;;
55678;SDS011;41573;51.446;-2.018;2023-05-16T16:39:11;2.65;;;1.50;;
55678;SDS011;41573;51.446;-2.018;2023-05-16T16:41:37;3.90;;;1.92;;
55678;SDS011;41573;51.446;-2.018;2023-05-16T16:44:02;3.40;;;1.40;;
55678;SDS011;41573;51.446;-2.018;2023-05-16T16:46:27;3.88;;;1.63;;
55678;SDS011;41573;51.446;-2.018;2023-05-16T16:48:53;3.80;;;1.63;;
55678;SDS011;41573;51.446;-2.018;2023-05-16T16:51:18;4.47;;;2.00;;
55678;SDS011;41573;51.446;-2.018;2023-05-16T16:53:45;5.07;;;1.85;;
55678;SDS011;41573;51.446;-2.018;2023-05-16T16:56:11;2.95;;;1.60;;
55678;SDS011;41573;51.446;-2.018;2023-05-16T16:58:36;3.00;;;1.63;;
55678;SDS011;41573;51.446;-2.018;2023-05-16T17:01:01;3.70;;;1.52;;
55678;SDS011;41573;51.446;-2.018;2023-05-16T17:03:28;4.80;;;1.92;;
55678;SDS011;41573;51.446;-2.018;2023-05-16T17:05:53;5.50;;;1.70;;
55678;SDS011;41573;51.446;-2.018;2023-05-16T17:08:18;5.28;;;2.00;;
55678;SDS011;41573;51.446;-2.018;2023-05-16T17:10:44;5.00;;;1.88;;
55678;SDS011;41573;51.446;-2.018;2023-05-16T17:13:10;3.30;;;1.42;;
55678;SDS011;41573;51.446;-2.018;2023-05-16T17:15:38;4.18;;;1.88;;
55678;SDS011;41573;51.446;-2.018;2023-05-16T17:18:03;3.58;;;1.55;;
55678;SDS011;41573;51.446;-2.018;2023-05-16T17:20:33;3.35;;;1.80;;
55678;SDS011;41573;51.446;-2.018;2023-05-16T17:23:00;3.28;;;1.70;;
55678;SDS011;41573;51.446;-2.018;2023-05-16T17:25:25;6.60;;;2.20;;
55678;SDS011;41573;51.446;-2.018;2023-05-16T17:27:52;6.63;;;1.98;;
55678;SDS011;41573;51.446;-2.018;2023-05-16T17:30:17;5.57;;;1.92;;
55678;SDS011;41573;51.446;-2.018;2023-05-16T17:32:43;5.00;;;2.00;;
55678;SDS011;41573;51.446;-2.018;2023-05-16T17:35:08;4.50;;;1.83;;
55678;SDS011;41573;51.446;-2.018;2023-05-16T17:37:34;3.30;;;1.70;;
55678;SDS011;41573;51.446;-2.018;2023-05-16T17:39:59;2.20;;;1.50;;
55678;SDS011;41573;51.446;-2.018;2023-05-16T17:42:25;3.50;;;1.90;;
55678;SDS011;41573;51.446;-2.018;2023-05-16T17:44:50;4.10;;;2.05;;
55678;SDS011;41573;51.446;-2.018;2023-05-16T17:47:16;3.10;;;2.20;;
55678;SDS011;41573;51.446;-2.018;2023-05-16T17:49:43;3.47;;;1.67;;
55678;SDS011;41573;51.446;-2.018;2023-05-16T17:52:10;4.30;;;2.42;;
55678;SDS011;41573;51.446;-2.018;2023-05-16T17:54:35;5.22;;;1.67;;
55678;SDS011;41573;51.446;-2.018;2023-05-16T17:57:01;6.85;;;2.50;;
55678;SDS011;41573;51.446;-2.018;2023-05-16T17:59:26;3.20;;;1.70;;
55678;SDS011;41573;51.446;-2.018;2023-05-16T18:01:52;2.22;;;1.38;;
55678;SDS011;41573;51.446;-2.018;2023-05-16T18:04:19;6.63;;;1.90;;
55678;SDS011;41573;51.446;-2.018;2023-05-16T18:06:46;4.63;;;1.52;;
55678;SDS011;41573;51.446;-2.018;2023-05-16T18:09:12;3.40;;;1.52;;
55678;SDS011;41573;51.446;-2.018;2023-05-16T18:11:39;3.28;;;1.42;;
55678;SDS011;41573;51.446;-2.018;2023-05-16T18:14:05;5.10;;;1.70;;
55678;SDS011;41573;51.446;-2.018;2023-05-16T18:16:33;3.33;;;1.52;;
55678;SDS011;41573;51.446;-2.018;2023-05-16T18:18:58;3.53;;;1.63;;
55678;SDS011;41573;51.446;-2.018;2023-05-16T18:21:24;2.63;;;1.50;;
55678;SDS011;41573;51.446;-2.018;2023-05-16T18:23:49;3.65;;;1.30;;
55678;SDS011;41573;51.446;-2.018;2023-05-16T18:26:15;4.93;;;1.60;;
55678;SDS011;41573;51.446;-2.018;2023-05-16T18:28:41;4.75;;;1.50;;
55678;SDS011;41573;51.446;-2.018;2023-05-16T18:31:07;2.13;;;1.08;;
55678;SDS011;41573;51.446;-2.018;2023-05-16T18:33:33;2.75;;;1.55;;
55678;SDS011;41573;51.446;-2.018;2023-05-16T18:35:58;4.05;;;1.75;;
55678;SDS011;41573;51.446;-2.018;2023-05-16T18:38:24;5.50;;;2.15;;
55678;SDS011;41573;51.446;-2.018;2023-05-16T18:40:49;3.50;;;1.75;;
55678;SDS011;41573;51.446;-2.018;2023-05-16T18:43:15;3.33;;;1.23;;
55678;SDS011;41573;51.446;-2.018;2023-05-16T18:45:41;4.38;;;1.80;;
55678;SDS011;41573;51.446;-2.018;2023-05-16T18:48:06;3.45;;;1.70;;
55678;SDS011;41573;51.446;-2.018;2023-05-16T18:50:32;2.17;;;1.20;;
55678;SDS011;41573;51.446;-2.018;2023-05-16T18:52:57;2.30;;;1.35;;
55678;SDS011;41573;51.446;-2.018;2023-05-16T18:55:23;3.15;;;1.33;;
55678;SDS011;41573;51.446;-2.018;2023-05-16T18:57:48;6.00;;;1.80;;
55678;SDS011;41573;51.446;-2.018;2023-05-16T19:00:14;2.08;;;1.38;;
55678;SDS011;41573;51.446;-2.018;2023-05-16T19:02:40;4.78;;;1.70;;
55678;SDS011;41573;51.446;-2.018;2023-05-16T19:05:05;3.85;;;1.42;;
55678;SDS011;41573;51.446;-2.018;2023-05-16T19:07:31;2.75;;;1.50;;
55678;SDS011;41573;51.446;-2.018;2023-05-16T19:09:57;3.88;;;1.33;;
55678;SDS011;41573;51.446;-2.018;2023-05-16T19:12:22;2.40;;;1.50;;
55678;SDS011;41573;51.446;-2.018;2023-05-16T19:14:47;3.38;;;1.30;;
55678;SDS011;41573;51.446;-2.018;2023-05-16T19:17:13;4.43;;;1.98;;
55678;SDS011;41573;51.446;-2.018;2023-05-16T19:19:38;5.10;;;1.52;;
55678;SDS011;41573;51.446;-2.018;2023-05-16T19:22:04;3.00;;;1.27;;
55678;SDS011;41573;51.446;-2.018;2023-05-16T19:24:30;2.90;;;1.27;;
55678;SDS011;41573;51.446;-2.018;2023-05-16T19:26:55;4.75;;;1.60;;
55678;SDS011;41573;51.446;-2.018;2023-05-16T19:29:21;4.80;;;1.33;;
55678;SDS011;41573;51.446;-2.018;2023-05-16T19:31:46;3.38;;;1.40;;
55678;SDS011;41573;51.446;-2.018;2023-05-16T19:34:12;2.90;;;1.42;;
55678;SDS011;41573;51.446;-2.018;2023-05-16T19:36:37;2.42;;;0.95;;
55678;SDS011;41573;51.446;-2.018;2023-05-16T19:39:03;3.88;;;1.38;;
55678;SDS011;41573;51.446;-2.018;2023-05-16T19:41:28;3.72;;;1.40;;
55678;SDS011;41573;51.446;-2.018;2023-05-16T19:43:54;3.67;;;1.70;;
55678;SDS011;41573;51.446;-2.018;2023-05-16T19:46:19;2.55;;;1.55;;
55678;SDS011;41573;51.446;-2.018;2023-05-16T19:48:44;4.07;;;1.60;;
55678;SDS011;41573;51.446;-2.018;2023-05-16T19:51:10;4.60;;;1.33;;
55678;SDS011;41573;51.446;-2.018;2023-05-16T19:53:36;3.85;;;1.52;;
55678;SDS011;41573;51.446;-2.018;2023-05-16T19:56:01;3.72;;;1.42;;
55678;SDS011;41573;51.446;-2.018;2023-05-16T19:58:28;2.30;;;1.35;;
55678;SDS011;41573;51.446;-2.018;2023-05-16T20:00:53;2.50;;;1.50;;
55678;SDS011;41573;51.446;-2.018;2023-05-16T20:03:19;3.22;;;1.20;;
55678;SDS011;41573;51.446;-2.018;2023-05-16T20:05:45;4.82;;;1.80;;
55678;SDS011;41573;51.446;-2.018;2023-05-16T20:08:10;4.38;;;1.50;;
55678;SDS011;41573;51.446;-2.018;2023-05-16T20:10:36;5.40;;;1.80;;
55678;SDS011;41573;51.446;-2.018;2023-05-16T20:13:02;4.68;;;1.55;;
55678;SDS011;41573;51.446;-2.018;2023-05-16T20:15:28;2.42;;;1.30;;
55678;SDS011;41573;51.446;-2.018;2023-05-16T20:17:53;3.05;;;1.42;;
55678;SDS011;41573;51.446;-2.018;2023-05-16T20:20:19;2.72;;;1.55;;
55678;SDS011;41573;51.446;-2.018;2023-05-16T20:22:44;3.08;;;1.05;;
55678;SDS011;41573;51.446;-2.018;2023-05-16T20:25:09;3.78;;;1.35;;
55678;SDS011;41573;51.446;-2.018;2023-05-16T20:27:36;3.65;;;1.60;;
55678;SDS011;41573;51.446;-2.018;2023-05-16T20:30:02;3.55;;;1.58;;
55678;SDS011;41573;51.446;-2.018;2023-05-16T20:32:29;3.03;;;1.42;;
55678;SDS011;41573;51.446;-2.018;2023-05-16T20:34:55;2.72;;;1.45;;
55678;SDS011;41573;51.446;-2.018;2023-05-16T20:37:20;2.70;;;1.63;;
55678;SDS011;41573;51.446;-2.018;2023-05-16T20:39:50;2.13;;;1.42;;